Terminal Aerodrome Forecast
Issued by NWS Hastings, NE

Home | Current Version | Previous Version | Text Only | Print | Product List | Glossary On
Versions: 1 2 3 4 5 6 7 8 9 10 11 12 13 14 15 16
000
FTUS43 KGID 261503 AAD
TAFGRI
TAF AMD
KGRI 261503Z 2615/2712 07009KT P6SM BKN012 BKN150
      TEMPO 2615/2618 BKN007
     FM261900 03009KT P6SM BKN022
     FM262100 01013G23KT P6SM VCTS BKN025CB
     FM270100 02013KT P6SM OVC025
     FM270500 02010KT P6SM BKN015=

USA.gov is the U.S. government's official web portal to all federal, state and local government web resources and services.